Time;durP1;ratioP1;P1;durP2;ratioP2;P2;SDS_P1;SDS_P2;PMS_P1;PMS_P2;Temp;Humidity;BMP_temperature;BMP_pressure;BME280_temperature;BME280_humidity;BME280_pressure;Samples;Min_cycle;Max_cycle;Signal;HPM_P1;HPM_P2
2023/10/09 00:02:12;;;;;;;24.95;14.90;;;;;;;13.41;100.00;101998.19;5010940;28;20450;-79
2023/10/09 00:04:41;;;;;;;25.67;15.45;;;;;;;13.46;100.00;102009.66;5011000;28;20038;-79
2023/10/09 00:07:10;;;;;;;24.88;16.48;;;;;;;13.50;100.00;102000.69;4979257;28;20049;-79
2023/10/09 00:09:48;;;;;;;29.90;16.10;;;;;;;13.52;100.00;101991.78;5008786;28;20213;-79
2023/10/09 00:12:16;;;;;;;26.05;15.63;;;;;;;13.54;100.00;102011.28;4999398;28;20052;-79
2023/10/09 00:14:47;;;;;;;26.23;16.48;;;;;;;13.59;100.00;102013.88;5005317;28;20073;-79
2023/10/09 00:17:17;;;;;;;24.30;16.08;;;;;;;13.61;100.00;101989.91;5005613;28;20061;-79
2023/10/09 00:19:46;;;;;;;26.80;15.77;;;;;;;13.64;100.00;101989.84;5010501;28;20109;-79
2023/10/09 00:22:25;;;;;;;28.67;17.27;;;;;;;13.67;100.00;101977.34;5000416;28;20034;-78
2023/10/09 00:25:12;;;;;;;29.15;16.10;;;;;;;13.72;100.00;101980.84;4999915;28;20073;-79
2023/10/09 00:27:48;;;;;;;27.17;15.05;;;;;;;13.75;100.00;101977.25;4983411;28;20038;-79
2023/10/09 00:30:17;;;;;;;26.50;15.90;;;;;;;13.80;100.00;101975.38;4995443;28;20510;-79
2023/10/09 00:38:34;;;;;;;28.27;16.50;;;;;;;13.94;100.00;101968.00;5006767;28;20461;-79
2023/10/09 00:41:10;;;;;;;25.55;15.38;;;;;;;13.99;100.00;101959.94;5002656;28;20132;-79
2023/10/09 00:43:43;;;;;;;27.48;14.98;;;;;;;14.03;100.00;101968.78;4991392;28;20087;-79
2023/10/09 00:48:53;;;;;;;25.25;15.77;;;;;;;14.19;100.00;101970.22;5000795;28;20224;-79
2023/10/09 00:51:24;;;;;;;25.35;15.60;;;;;;;14.26;100.00;101976.31;4997162;28;20113;-79
2023/10/09 00:53:57;;;;;;;25.05;16.70;;;;;;;14.32;100.00;101976.22;4996164;28;20382;-75
2023/10/09 00:58:56;;;;;;;25.33;15.95;;;;;;;14.39;100.00;101972.50;4994104;28;20034;-75
2023/10/09 01:01:27;;;;;;;24.40;14.60;;;;;;;14.41;100.00;101973.34;5000664;28;20041;-75
2023/10/09 01:03:54;;;;;;;25.27;15.25;;;;;;;14.41;100.00;101965.38;5004395;28;20477;-76
2023/10/09 01:06:33;;;;;;;24.63;15.75;;;;;;;14.45;100.00;101975.06;4994269;28;20014;-75
2023/10/09 01:09:09;;;;;;;22.02;13.93;;;;;;;14.46;100.00;101971.47;5009570;28;20041;-75
2023/10/09 01:11:38;;;;;;;21.52;14.68;;;;;;;14.49;100.00;101979.44;4990623;28;20045;-76
2023/10/09 01:16:32;;;;;;;26.73;14.43;;;;;;;14.53;100.00;101967.81;5004304;28;20133;-75
2023/10/09 01:18:57;;;;;;;24.90;14.32;;;;;;;14.53;100.00;101967.81;4961010;28;20511;-75
2023/10/09 01:21:24;;;;;;;22.40;14.15;;;;;;;14.57;100.00;101965.97;4998776;28;20137;-75
2023/10/09 01:24:03;;;;;;;22.05;13.52;;;;;;;14.59;100.00;101972.16;4994494;28;20089;-75
2023/10/09 01:26:33;;;;;;;23.40;13.45;;;;;;;14.59;100.00;101972.16;4997463;28;20065;-75
2023/10/09 01:29:00;;;;;;;22.48;13.68;;;;;;;14.61;100.00;101975.66;4993837;28;20111;-75
2023/10/09 01:31:27;;;;;;;26.13;12.98;;;;;;;14.61;100.00;101971.22;4975993;28;20060;-75
2023/10/09 01:33:54;;;;;;;23.70;13.40;;;;;;;14.60;100.00;101972.13;4985110;28;20369;-75
2023/10/09 01:36:31;;;;;;;23.38;13.63;;;;;;;14.62;100.00;101969.44;4998826;28;20049;-75
2023/10/09 01:38:59;;;;;;;22.13;13.27;;;;;;;14.62;100.00;101964.97;4993932;28;20133;-75
2023/10/09 01:41:25;;;;;;;19.90;14.05;;;;;;;14.61;100.00;101965.00;5000693;28;20246;-75
2023/10/09 01:43:51;;;;;;;27.33;13.48;;;;;;;14.60;100.00;101958.78;4999245;28;20359;-75
2023/10/09 01:46:20;;;;;;;26.00;14.52;;;;;;;14.59;100.00;101962.38;4980709;28;20034;-75
2023/10/09 01:48:46;;;;;;;23.55;13.68;;;;;;;14.59;100.00;101965.03;5005470;28;20064;-75
2023/10/09 01:51:18;;;;;;;22.13;13.02;;;;;;;14.58;100.00;101963.25;4995398;28;20242;-75
2023/10/09 01:53:44;;;;;;;22.52;13.00;;;;;;;14.59;100.00;101972.16;4996090;28;20105;-75
2023/10/09 01:56:15;;;;;;;26.77;13.35;;;;;;;14.59;100.00;101964.16;4999384;28;20046;-75
2023/10/09 01:58:45;;;;;;;23.90;14.13;;;;;;;14.58;100.00;101960.59;4993059;28;20570;-75
2023/10/09 02:01:11;;;;;;;22.85;13.05;;;;;;;14.58;100.00;101954.41;4996247;28;20334;-75
2023/10/09 02:03:38;;;;;;;22.92;13.27;;;;;;;14.57;100.00;101956.19;5008249;28;20117;-75
2023/10/09 02:06:05;;;;;;;20.55;12.73;;;;;;;14.60;100.00;101963.25;4996552;28;20053;-75
2023/10/09 02:08:35;;;;;;;20.85;12.85;;;;;;;14.61;100.00;101963.22;5009315;28;20361;-75
2023/10/09 02:11:02;;;;;;;21.45;13.30;;;;;;;14.61;100.00;101965.00;5001320;28;20038;-75
2023/10/09 02:13:34;;;;;;;24.55;12.63;;;;;;;14.59;100.00;101957.03;5006248;28;20038;-75
2023/10/09 02:16:41;;;;;;;22.58;13.75;;;;;;;14.61;100.00;101952.56;5001765;28;20054;-75
2023/10/09 02:18:58;;;;;;;23.08;12.88;;;;;;;14.61;100.00;101941.91;4985078;28;20488;-75
2023/10/09 02:21:33;;;;;;;21.40;12.95;;;;;;;14.59;100.00;101948.19;5003264;28;20057;-75
2023/10/09 02:24:05;;;;;;;25.17;13.52;;;;;;;14.60;100.00;101952.59;5002832;28;20115;-75
2023/10/09 02:29:20;;;;;;;24.08;13.82;;;;;;;14.58;100.00;101939.28;4976484;28;20057;-75
2023/10/09 02:31:51;;;;;;;26.42;14.05;;;;;;;14.57;100.00;101929.53;4976329;28;20057;-75
2023/10/09 02:34:21;;;;;;;23.15;12.52;;;;;;;14.56;100.00;101926.88;4989570;28;20061;-75
2023/10/09 02:36:57;;;;;;;19.53;13.10;;;;;;;14.56;100.00;101918.91;5008082;28;20050;-75
2023/10/09 02:39:26;;;;;;;23.20;14.13;;;;;;;14.57;100.00;101924.19;5007668;28;20289;-75
2023/10/09 02:44:52;;;;;;;25.75;13.43;;;;;;;14.53;100.00;101908.28;4957469;28;20465;-75
2023/10/09 02:47:29;;;;;;;25.15;15.00;;;;;;;14.51;100.00;101910.97;5000087;28;20034;-75
2023/10/09 02:50:00;;;;;;;29.40;13.75;;;;;;;14.52;100.00;101922.53;4989194;28;20045;-75
2023/10/09 02:52:32;;;;;;;20.25;13.20;;;;;;;14.49;100.00;101931.47;4995460;28;20034;-75
2023/10/09 02:55:00;;;;;;;22.40;14.57;;;;;;;14.50;100.00;101922.53;4992377;28;20117;-75
2023/10/09 02:57:35;;;;;;;27.55;14.35;;;;;;;14.50;100.00;101919.00;4978195;28;20048;-75
2023/10/09 03:00:03;;;;;;;29.42;15.55;;;;;;;14.48;100.00;101927.03;4973804;28;20097;-75
2023/10/09 03:02:31;;;;;;;22.80;13.85;;;;;;;14.49;100.00;101920.81;5005733;28;20104;-75
2023/10/09 03:04:59;;;;;;;23.58;13.77;;;;;;;14.50;100.00;101916.34;5001920;28;20462;-75
2023/10/09 03:07:25;;;;;;;22.05;13.77;;;;;;;14.49;100.00;101922.56;5001351;28;20042;-75
2023/10/09 03:09:50;;;;;;;20.00;13.05;;;;;;;14.46;100.00;101904.84;4990495;28;20125;-75
2023/10/09 03:12:18;;;;;;;22.65;13.75;;;;;;;14.48;100.00;101915.50;5002816;28;20030;-75
2023/10/09 03:14:44;;;;;;;25.25;13.93;;;;;;;14.44;100.00;101906.69;5004125;28;20037;-74
2023/10/09 03:17:13;;;;;;;22.10;14.13;;;;;;;14.47;100.00;101906.63;4997013;28;20057;-75
2023/10/09 03:19:39;;;;;;;21.30;14.02;;;;;;;14.49;100.00;101898.56;5001182;28;20030;-75
2023/10/09 03:22:09;;;;;;;18.00;13.60;;;;;;;14.49;100.00;101898.56;5009590;28;20038;-75
2023/10/09 03:24:37;;;;;;;21.63;14.25;;;;;;;14.46;100.00;101898.66;5010043;28;20045;-75
2023/10/09 03:27:04;;;;;;;27.30;13.20;;;;;;;14.47;100.00;101903.09;5004244;28;20537;-75
2023/10/09 03:29:29;;;;;;;20.45;13.95;;;;;;;14.43;100.00;101890.72;5001981;28;20034;-75
2023/10/09 03:31:56;;;;;;;20.90;13.68;;;;;;;14.43;100.00;101882.72;5010284;28;20052;-75
2023/10/09 03:34:22;;;;;;;29.17;14.32;;;;;;;14.45;100.00;101883.59;5010127;28;20370;-75
2023/10/09 03:36:48;;;;;;;22.52;14.13;;;;;;;14.45;100.00;101879.13;5011237;28;20045;-74
2023/10/09 03:41:58;;;;;;;20.20;13.20;;;;;;;14.43;100.00;101872.94;5007627;28;20069;-74
2023/10/09 03:44:28;;;;;;;26.05;13.27;;;;;;;14.39;100.00;101874.81;5014494;28;20137;-78
2023/10/09 03:46:53;;;;;;;22.02;13.00;;;;;;;14.40;100.00;101889.00;5013383;28;20041;-79
2023/10/09 03:49:23;;;;;;;25.83;14.60;;;;;;;14.39;100.00;101888.13;5011791;28;20542;-78
2023/10/09 03:51:49;;;;;;;22.90;14.07;;;;;;;14.41;100.00;101893.41;5013606;28;20339;-75
2023/10/09 03:54:15;;;;;;;21.95;13.60;;;;;;;14.40;100.00;101881.00;5013920;28;20490;-75
2023/10/09 03:56:41;;;;;;;22.92;13.68;;;;;;;14.41;100.00;101886.31;5013836;28;20109;-75
2023/10/09 03:59:10;;;;;;;32.33;13.65;;;;;;;14.41;100.00;101886.31;5013546;28;20416;-74
2023/10/09 04:01:39;;;;;;;25.52;14.40;;;;;;;14.43;100.00;101885.41;5003699;28;20696;-75
2023/10/09 04:04:07;;;;;;;24.38;14.05;;;;;;;14.44;100.00;101881.81;5025804;28;20045;-75
2023/10/09 04:06:33;;;;;;;23.23;14.10;;;;;;;14.45;100.00;101881.78;5013708;28;20044;-74
2023/10/09 04:12:35;;;;;;;23.17;14.43;;;;;;;14.49;100.00;101871.91;4995526;28;20069;-75
2023/10/09 04:14:35;;;;;;;26.35;15.40;;;;;;;14.48;100.00;101860.38;4988542;28;20448;-75
2023/10/09 04:17:06;;;;;;;23.88;14.45;;;;;;;14.45;100.00;101856.94;5009987;28;20053;-75
2023/10/09 04:19:48;;;;;;;22.70;14.30;;;;;;;14.43;100.00;101854.28;5013418;28;20052;-75
2023/10/09 04:22:39;;;;;;;25.80;14.52;;;;;;;14.44;100.00;101860.50;4997985;28;20128;-74
2023/10/09 04:25:00;;;;;;;22.00;14.15;;;;;;;14.43;100.00;101869.41;5012463;28;20508;-74
2023/10/09 04:27:35;;;;;;;27.65;16.20;;;;;;;14.41;100.00;101874.75;5013242;28;20049;-74
2023/10/09 04:30:01;;;;;;;30.63;15.10;;;;;;;14.45;100.00;101888.91;5013037;28;20038;-74
2023/10/09 04:32:26;;;;;;;21.85;13.70;;;;;;;14.45;100.00;101896.91;5013005;28;20073;-74
2023/10/09 04:37:39;;;;;;;24.80;13.75;;;;;;;14.47;100.00;101898.63;4995248;28;20108;-75
2023/10/09 04:40:41;;;;;;;27.90;15.40;;;;;;;14.45;100.00;101894.25;5012781;28;20049;-74
2023/10/09 04:42:59;;;;;;;27.58;15.60;;;;;;;14.48;100.00;101897.72;5010980;28;20124;-74
2023/10/09 04:46:06;;;;;;;26.98;15.15;;;;;;;14.48;100.00;101897.72;5012848;28;20169;-74
2023/10/09 04:48:11;;;;;;;28.10;13.60;;;;;;;14.46;100.00;101901.31;4997233;28;20132;-74
2023/10/09 04:50:45;;;;;;;26.45;14.50;;;;;;;14.47;100.00;101911.94;5012686;28;20172;-75
2023/10/09 04:55:44;;;;;;;25.52;16.27;;;;;;;14.48;100.00;101897.72;5013001;28;20041;-75
2023/10/09 04:58:18;;;;;;;20.25;13.52;;;;;;;14.48;100.00;101897.72;5012843;28;20042;-75
2023/10/09 05:00:47;;;;;;;26.50;15.45;;;;;;;14.48;100.00;101902.16;5009885;28;20038;-74
2023/10/09 05:03:24;;;;;;;22.02;14.02;;;;;;;14.50;100.00;101906.56;4979017;28;20163;-74
2023/10/09 05:05:58;;;;;;;31.83;16.05;;;;;;;14.51;100.00;101908.28;5011381;28;20038;-75
2023/10/09 05:16:13;;;;;;;21.27;13.57;;;;;;;14.47;100.00;101895.09;5012495;28;20054;-74
2023/10/09 05:19:08;;;;;;;25.08;14.88;;;;;;;14.45;100.00;101900.44;4993770;28;20044;-74
2023/10/09 05:37:25;;;;;;;24.77;14.73;;;;;;;14.49;100.00;101927.91;5001861;28;20044;-74
2023/10/09 05:48:04;;;;;;;27.05;15.05;;;;;;;14.50;100.00;101911.00;5011990;28;20053;-74
2023/10/09 05:50:34;;;;;;;25.55;14.07;;;;;;;14.47;100.00;101919.94;5011969;28;20167;-74
2023/10/09 06:03:53;;;;;;;21.00;14.50;;;;;;;14.50;100.00;101957.19;5011579;28;20133;-74
2023/10/09 06:06:32;;;;;;;26.33;15.75;;;;;;;14.52;100.00;101955.38;4993285;28;20041;-74
2023/10/09 06:11:49;;;;;;;30.27;16.25;;;;;;;14.53;100.00;101946.50;4999220;28;20059;-74
2023/10/09 06:19:27;;;;;;;24.65;15.48;;;;;;;14.54;100.00;101955.34;5007174;28;20309;-74
2023/10/09 06:32:46;;;;;;;29.98;16.88;;;;;;;14.59;100.00;101953.50;4988253;28;20062;-74
2023/10/09 06:35:18;;;;;;;27.27;15.50;;;;;;;14.59;100.00;101967.72;4988840;28;20029;-74
2023/10/09 06:38:40;;;;;;;30.05;15.52;;;;;;;14.60;100.00;101949.91;4982836;28;20478;-74
2023/10/09 06:48:44;;;;;;;25.77;14.73;;;;;;;14.62;100.00;101943.66;4981355;28;20535;-74
2023/10/09 06:59:15;;;;;;;26.58;16.13;;;;;;;14.58;100.00;101923.28;5008892;28;20322;-74
2023/10/09 07:01:44;;;;;;;29.88;17.02;;;;;;;14.63;100.00;101936.50;5001520;28;20042;-77
2023/10/09 07:04:18;;;;;;;27.42;15.98;;;;;;;14.66;100.00;101917.78;5010785;28;20116;-74
2023/10/09 07:06:48;;;;;;;24.85;15.50;;;;;;;14.69;100.00;101915.06;4979266;28;20034;-74
2023/10/09 07:14:32;;;;;;;31.05;15.95;;;;;;;14.72;100.00;101876.81;4996744;28;20151;-74
2023/10/09 07:17:21;;;;;;;29.30;16.70;;;;;;;14.74;100.00;101901.66;5012229;28;20111;-74
2023/10/09 07:25:14;;;;;;;27.92;16.70;;;;;;;14.84;100.00;101954.72;5012456;28;20042;-74
2023/10/09 07:27:48;;;;;;;30.35;17.38;;;;;;;14.87;100.00;101952.91;5011277;28;20144;-74
2023/10/09 07:32:56;;;;;;;28.80;17.38;;;;;;;14.96;100.00;101974.03;5014359;28;20053;-74
2023/10/09 07:38:08;;;;;;;27.25;17.27;;;;;;;14.98;100.00;101981.06;5012388;28;20499;-74
2023/10/09 07:43:27;;;;;;;30.55;17.67;;;;;;;14.98;100.00;101978.41;5006795;28;20060;-74
2023/10/09 07:48:38;;;;;;;33.55;18.27;;;;;;;14.99;100.00;101980.19;5013936;28;20485;-74
2023/10/09 07:51:11;;;;;;;28.83;17.23;;;;;;;15.01;100.00;101970.38;4999944;28;20124;-77
2023/10/09 07:53:43;;;;;;;27.00;17.85;;;;;;;15.01;100.00;101962.38;5003058;28;20038;-77
2023/10/09 07:56:09;;;;;;;27.88;17.38;;;;;;;15.04;100.00;101956.94;4981980;28;20069;-77
2023/10/09 07:58:45;;;;;;;30.17;17.10;;;;;;;15.04;100.00;101932.06;4996088;28;20054;-77
2023/10/09 08:04:20;;;;;;;28.35;17.35;;;;;;;15.05;100.00;101968.50;4933783;29;20055;-78
2023/10/09 08:06:45;;;;;;;31.88;17.83;;;;;;;15.07;100.00;101963.13;4917986;29;20035;-78
2023/10/09 08:12:13;;;;;;;29.15;17.73;;;;;;;15.10;100.00;101982.59;5013766;28;20041;-77
2023/10/09 08:14:48;;;;;;;30.02;17.58;;;;;;;15.17;100.00;101956.66;5010549;28;20030;-77
2023/10/09 08:17:37;;;;;;;29.45;16.45;;;;;;;15.21;100.00;101953.91;5004201;28;20496;-77
2023/10/09 08:20:11;;;;;;;27.23;16.75;;;;;;;15.26;100.00;101938.66;5006251;28;20057;-77
2023/10/09 08:22:43;;;;;;;34.85;18.45;;;;;;;15.31;100.00;101945.69;5012627;28;20120;-78
2023/10/09 08:31:03;;;;;;;29.15;17.08;;;;;;;15.48;100.00;101922.13;5012591;28;20112;-78
2023/10/09 08:33:42;;;;;;;29.13;16.92;;;;;;;15.52;100.00;101920.25;5010634;28;20032;-78
2023/10/09 08:36:11;;;;;;;37.15;17.63;;;;;;;15.60;100.00;101927.16;5005453;28;20572;-78
2023/10/09 08:38:36;;;;;;;32.83;18.13;;;;;;;15.66;100.00;101920.78;5010979;28;20041;-78
2023/10/09 08:41:19;;;;;;;34.83;17.80;;;;;;;15.78;100.00;101925.81;5012937;28;20041;-78
2023/10/09 08:43:53;;;;;;;33.30;17.35;;;;;;;15.86;100.00;101923.81;5010266;28;20064;-78
2023/10/09 08:46:29;;;;;;;33.35;17.73;;;;;;;15.89;100.00;101923.72;4971047;28;20037;-78
2023/10/09 08:48:59;;;;;;;35.58;17.38;;;;;;;15.94;100.00;101917.41;5006272;28;20033;-78
2023/10/09 08:51:27;;;;;;;32.00;17.33;;;;;;;16.00;100.00;101926.13;4972169;28;20037;-78
2023/10/09 08:53:53;;;;;;;32.33;17.73;;;;;;;16.07;100.00;101934.84;5002920;28;20030;-78
2023/10/09 08:56:23;;;;;;;30.45;17.10;;;;;;;16.17;100.00;101944.38;4995902;28;20032;-79
2023/10/09 08:58:53;;;;;;;29.38;17.17;;;;;;;16.25;100.00;101963.75;5012275;28;20388;-79
2023/10/09 09:01:21;;;;;;;28.13;17.75;;;;;;;16.34;100.00;101978.63;4996982;28;20036;-79
2023/10/09 09:03:47;;;;;;;26.63;16.27;;;;;;;16.41;100.00;101977.53;4978165;28;20049;-79
2023/10/09 09:06:14;;;;;;;30.60;17.30;;;;;;;16.54;100.00;101980.75;5012306;28;20037;-79
2023/10/09 09:08:40;;;;;;;24.92;16.08;;;;;;;16.62;100.00;101981.41;4994498;28;20144;-79
2023/10/09 09:11:17;;;;;;;29.85;17.42;;;;;;;16.71;100.00;101981.13;5012167;28;20125;-79
2023/10/09 09:14:07;;;;;;;32.15;16.55;;;;;;;16.80;100.00;101984.50;4994613;28;20446;-79
2023/10/09 09:16:38;;;;;;;30.33;17.77;;;;;;;16.88;100.00;101990.50;5010965;28;20369;-79
2023/10/09 09:21:43;;;;;;;29.73;17.15;;;;;;;17.02;100.00;101985.63;5011993;28;20041;-79
2023/10/09 09:26:59;;;;;;;28.50;17.52;;;;;;;17.14;100.00;101987.91;5006317;28;20041;-79
2023/10/09 09:29:37;;;;;;;30.90;16.85;;;;;;;17.24;100.00;102007.25;5010772;28;20159;-79
2023/10/09 09:32:19;;;;;;;31.30;16.67;;;;;;;17.30;100.00;102000.81;5008599;28;20101;-79
2023/10/09 09:34:49;;;;;;;29.58;17.65;;;;;;;17.33;100.00;102001.63;5011459;28;20479;-79
2023/10/09 09:37:21;;;;;;;30.55;17.45;;;;;;;17.34;100.00;102010.50;4977632;28;20037;-79
2023/10/09 09:39:51;;;;;;;29.27;16.67;;;;;;;17.39;100.00;102013.91;5011429;28;20109;-80
2023/10/09 09:42:18;;;;;;;27.17;16.88;;;;;;;17.45;100.00;102010.16;5006962;28;20034;-79
2023/10/09 09:44:45;;;;;;;28.65;16.73;;;;;;;17.42;100.00;102009.31;4993245;28;20038;-79
2023/10/09 09:47:23;;;;;;;26.73;17.20;;;;;;;17.51;100.00;102016.22;5009592;28;20067;-79
2023/10/09 09:49:52;;;;;;;28.10;16.77;;;;;;;17.54;100.00;102009.88;5007719;28;20135;-79
2023/10/09 09:52:18;;;;;;;30.50;17.55;;;;;;;17.53;100.00;102003.66;5009745;28;20042;-79
2023/10/09 09:54:44;;;;;;;28.90;17.73;;;;;;;17.58;100.00;102009.72;5010934;28;20430;-78
2023/10/09 09:57:15;;;;;;;33.17;18.10;;;;;;;17.67;100.00;102003.19;5004574;28;20103;-78
2023/10/09 09:59:49;;;;;;;32.30;17.60;;;;;;;17.75;100.00;102021.69;4993716;28;20041;-78
2023/10/09 10:02:21;;;;;;;32.38;17.63;;;;;;;17.78;100.00;102008.19;4985967;28;20111;-78
2023/10/09 10:04:51;;;;;;;26.63;16.73;;;;;;;17.86;100.00;102007.97;5008932;28;20044;-78
2023/10/09 10:07:21;;;;;;;28.13;16.58;;;;;;;17.91;100.00;102006.00;5004744;28;20156;-78
2023/10/09 10:09:48;;;;;;;27.67;17.17;;;;;;;18.03;100.00;102014.50;5011102;28;20442;-78
2023/10/09 10:12:24;;;;;;;31.27;17.23;;;;;;;18.09;99.71;102007.19;5006888;28;20053;-78
2023/10/09 10:15:08;;;;;;;31.85;16.13;;;;;;;18.15;99.16;102006.94;5003074;28;20036;-78
2023/10/09 10:17:59;;;;;;;;;;;;;;;18.24;99.77;102004.81;5006472;28;20056;-78
2023/10/09 10:20:25;;;;;;;30.17;16.27;;;;;;;18.33;98.86;102013.50;5006696;28;19920;-78
2023/10/09 10:23:17;;;;;;;24.10;14.50;;;;;;;18.37;98.83;102009.75;5010216;28;20463;-78
2023/10/09 10:25:42;;;;;;;30.88;15.63;;;;;;;18.44;98.13;102011.28;4989840;28;20053;-78
2023/10/09 10:28:28;;;;;;;29.48;13.80;;;;;;;18.51;97.10;102010.13;5008246;28;20027;-78
2023/10/09 10:30:54;;;;;;;35.60;14.75;;;;;;;18.59;98.32;102015.22;5011012;28;20491;-78
2023/10/09 10:33:22;;;;;;;27.73;13.18;;;;;;;18.61;95.45;102014.22;5009433;28;20042;-79
2023/10/09 10:35:52;;;;;;;27.02;14.57;;;;;;;18.67;95.69;102021.19;5008316;28;20021;-78
2023/10/09 10:41:16;;;;;;;24.67;12.95;;;;;;;18.85;94.83;101999.06;4991683;28;20149;-78
2023/10/09 10:46:37;;;;;;;22.10;11.77;;;;;;;19.00;95.38;102005.63;4992228;28;20073;-78
2023/10/09 10:49:15;;;;;;;27.73;11.43;;;;;;;19.05;93.26;102006.34;5010416;28;20030;-78
2023/10/09 10:51:47;;;;;;;26.48;12.13;;;;;;;19.06;92.82;102013.44;4991189;28;20038;-78
2023/10/09 10:56:59;;;;;;;22.13;11.98;;;;;;;19.08;91.06;101998.16;5010072;28;20100;-78
2023/10/09 10:59:33;;;;;;;24.77;11.95;;;;;;;19.07;92.36;102007.16;4993165;28;20033;-78
2023/10/09 11:07:00;;;;;;;22.60;12.40;;;;;;;19.33;91.33;102018.66;5010136;28;20108;-78
2023/10/09 11:09:35;;;;;;;25.73;11.88;;;;;;;19.48;90.70;102017.19;4988514;28;20037;-78
2023/10/09 11:12:23;;;;;;;19.20;11.52;;;;;;;19.59;89.25;102022.13;5005853;28;20041;-78
2023/10/09 11:15:05;;;;;;;21.88;12.10;;;;;;;19.64;88.10;102012.94;4995230;28;20376;-78
2023/10/09 11:17:41;;;;;;;23.65;11.85;;;;;;;19.71;88.08;102011.78;4986519;28;20046;-78
2023/10/09 11:20:26;;;;;;;24.38;11.50;;;;;;;19.87;89.61;102003.06;4984137;28;20050;-77
2023/10/09 11:25:39;;;;;;;19.42;11.80;;;;;;;20.15;87.25;102009.03;4975928;28;20050;-75
2023/10/09 11:28:58;;;;;;;22.92;11.90;;;;;;;20.21;89.01;102001.63;4986951;28;20465;-75
2023/10/09 11:31:16;;;;;;;23.05;11.43;;;;;;;20.30;87.06;102006.59;4988107;28;20051;-75
2023/10/09 11:33:52;;;;;;;24.05;11.52;;;;;;;20.35;86.40;101997.38;4991017;28;20042;-75
2023/10/09 11:36:28;;;;;;;23.10;11.70;;;;;;;20.39;85.23;102012.44;4986746;28;20034;-76
2023/10/09 11:39:12;;;;;;;18.90;10.75;;;;;;;20.46;83.56;102007.66;4978654;28;20045;-76
2023/10/09 11:41:41;;;;;;;23.38;10.15;;;;;;;20.46;84.96;102009.47;4980902;28;20035;-75
2023/10/09 11:44:06;;;;;;;23.02;9.48;;;;;;;20.43;84.54;102004.25;4978472;28;20049;-76
2023/10/09 11:46:48;;;;;;;18.73;9.77;;;;;;;20.43;84.95;102002.41;4984553;28;20489;-75
2023/10/09 11:49:44;;;;;;;19.73;9.75;;;;;;;20.44;84.91;101997.91;4982445;28;20038;-76
2023/10/09 11:54:35;;;;;;;18.95;9.77;;;;;;;20.45;82.75;102008.63;4986112;28;20061;-76
2023/10/09 11:57:01;;;;;;;17.63;9.40;;;;;;;20.36;83.63;101999.13;4989151;28;20470;-76
2023/10/09 11:59:28;;;;;;;16.60;8.63;;;;;;;20.44;85.93;102003.28;4991496;28;20046;-76
2023/10/09 12:01:54;;;;;;;17.42;8.95;;;;;;;20.46;84.59;102002.28;4993727;28;20038;-77
2023/10/09 12:04:20;;;;;;;17.00;8.18;;;;;;;20.46;83.89;102002.28;4994093;28;20053;-76
2023/10/09 12:06:46;;;;;;;15.70;7.55;;;;;;;20.47;83.79;102004.00;4993462;28;20074;-77
2023/10/09 12:09:23;;;;;;;15.35;8.00;;;;;;;20.43;84.02;102004.25;4977146;28;20042;-77
2023/10/09 12:11:52;;;;;;;20.67;8.50;;;;;;;20.39;84.03;101998.97;4988535;28;20440;-77
2023/10/09 12:14:23;;;;;;;19.17;8.10;;;;;;;20.44;84.82;101996.09;4987206;28;20486;-77
2023/10/09 12:16:49;;;;;;;13.25;7.38;;;;;;;20.44;84.42;102006.84;5003430;28;20073;-78
2023/10/09 12:19:15;;;;;;;18.52;7.65;;;;;;;20.46;83.70;101998.72;5009286;28;20045;-78
2023/10/09 12:21:42;;;;;;;14.43;7.45;;;;;;;20.51;82.99;101985.94;4994284;28;20038;-77
2023/10/09 12:24:11;;;;;;;18.20;8.02;;;;;;;20.45;82.27;101986.19;4995912;28;20042;-77
2023/10/09 12:26:39;;;;;;;12.00;6.90;;;;;;;20.45;82.58;101981.72;4996086;28;20045;-77
2023/10/09 12:29:10;;;;;;;16.83;7.40;;;;;;;20.47;83.12;101987.88;5013626;28;20049;-77
2023/10/09 12:31:36;;;;;;;14.25;6.97;;;;;;;20.48;83.20;101978.88;4994811;28;20483;-76
2023/10/09 12:34:02;;;;;;;16.42;7.13;;;;;;;20.46;81.77;101972.69;4995792;28;20026;-77
2023/10/09 12:36:28;;;;;;;17.52;7.60;;;;;;;20.49;83.50;101972.53;5013396;28;20507;-77
2023/10/09 12:38:58;;;;;;;11.40;6.95;;;;;;;20.54;83.58;101975.03;4994256;28;20042;-77
2023/10/09 12:41:28;;;;;;;16.67;7.65;;;;;;;20.56;83.57;101973.16;4996584;28;20115;-77
2023/10/09 12:43:59;;;;;;;15.05;7.28;;;;;;;20.64;83.14;101962.91;4993265;28;20125;-77
2023/10/09 12:46:37;;;;;;;14.48;6.93;;;;;;;20.66;81.93;101955.66;5003529;28;20049;-78
2023/10/09 12:49:02;;;;;;;16.23;6.70;;;;;;;20.68;82.48;101947.53;4991954;28;20073;-77
2023/10/09 12:51:31;;;;;;;15.80;7.38;;;;;;;20.71;81.84;101950.06;4985791;28;20337;-77
2023/10/09 12:53:57;;;;;;;15.23;6.88;;;;;;;20.81;83.74;101949.53;5013296;28;20029;-77
2023/10/09 12:56:38;;;;;;;19.50;6.65;;;;;;;21.05;83.17;101941.25;5013110;28;20466;-77
2023/10/09 12:59:05;;;;;;;17.50;6.95;;;;;;;21.16;79.63;101936.19;4995196;28;20476;-77
2023/10/09 13:01:42;;;;;;;13.38;7.00;;;;;;;21.13;77.26;101941.75;4995059;28;20692;-77
2023/10/09 13:04:11;;;;;;;15.60;7.18;;;;;;;21.06;77.97;101937.59;4995109;28;20038;-77
2023/10/09 13:06:46;;;;;;;12.35;6.28;;;;;;;21.02;76.16;101944.97;5012946;28;20038;-77
2023/10/09 13:09:34;;;;;;;20.60;7.07;;;;;;;20.98;76.30;101947.88;4997648;28;20045;-78
2023/10/09 13:12:03;;;;;;;10.30;6.35;;;;;;;21.07;77.89;101950.13;4995146;28;20392;-77
2023/10/09 13:14:33;;;;;;;16.67;7.32;;;;;;;21.13;78.09;101952.53;5010450;28;20092;-76
2023/10/09 13:17:00;;;;;;;17.25;7.70;;;;;;;21.05;77.63;101955.59;4986644;28;20047;-77
2023/10/09 13:19:26;;;;;;;20.15;7.13;;;;;;;21.03;79.83;101946.69;4992667;28;20551;-77
2023/10/09 13:21:51;;;;;;;18.08;6.20;;;;;;;21.08;78.71;101949.19;4989864;28;20030;-78
2023/10/09 13:24:17;;;;;;;14.05;6.20;;;;;;;21.09;78.20;101956.28;4967904;28;20127;-82
2023/10/09 13:26:51;;;;;;;17.75;6.32;;;;;;;21.04;79.39;101953.84;4973212;28;20374;-75
2023/10/09 13:29:22;;;;;;;16.05;7.25;;;;;;;21.05;78.39;101968.19;4988307;28;20058;-82
2023/10/09 13:31:51;;;;;;;20.17;6.45;;;;;;;20.96;76.85;101969.47;4991504;28;20030;-81
2023/10/09 13:34:16;;;;;;;12.65;7.15;;;;;;;20.96;77.24;101969.47;4973378;28;20367;-77
2023/10/09 13:36:52;;;;;;;14.15;7.43;;;;;;;21.01;77.68;101970.13;4975421;28;20102;-79
2023/10/09 13:39:24;;;;;;;16.83;6.90;;;;;;;21.10;78.33;101965.28;4990478;28;20084;-77
2023/10/09 13:41:58;;;;;;;13.75;6.05;;;;;;;21.09;77.40;101967.06;4991626;28;20095;-77
2023/10/09 13:44:31;;;;;;;14.40;6.32;;;;;;;21.12;77.13;101964.25;4992630;28;20030;-74
2023/10/09 13:47:02;;;;;;;18.38;6.82;;;;;;;21.22;76.83;101959.28;4992231;28;20373;-73
2023/10/09 13:49:31;;;;;;;13.32;6.25;;;;;;;21.35;77.22;101968.50;4993546;28;20034;-76
2023/10/09 13:52:02;;;;;;;18.42;6.50;;;;;;;21.51;76.85;101973.16;4992369;28;20030;-74
2023/10/09 13:54:38;;;;;;;15.05;6.32;;;;;;;21.58;75.24;101970.06;4991117;28;20044;-74
2023/10/09 13:57:04;;;;;;;13.43;6.15;;;;;;;21.76;75.87;101964.72;4992201;28;20048;-75
2023/10/09 13:59:31;;;;;;;14.80;6.30;;;;;;;21.77;73.13;101967.34;4992417;28;20034;-74
2023/10/09 14:01:56;;;;;;;17.73;5.80;;;;;;;21.82;74.68;101967.09;4990476;28;20046;-75
2023/10/09 14:04:23;;;;;;;11.20;5.88;;;;;;;21.90;74.54;101972.97;4992264;28;20089;-74
2023/10/09 14:06:56;;;;;;;11.05;5.97;;;;;;;21.82;72.56;101975.19;4992262;28;20042;-73
2023/10/09 14:09:38;;;;;;;13.13;5.65;;;;;;;21.74;74.05;101975.59;4992174;28;20393;-73
2023/10/09 14:12:06;;;;;;;13.70;5.68;;;;;;;21.80;73.22;101964.47;4992004;28;20069;-75